Time;durP1;ratioP1;P1;durP2;ratioP2;P2;SDS_P1;SDS_P2;PMS_P1;PMS_P2;Temp;Humidity;BMP_temperature;BMP_pressure;BME280_temperature;BME280_humidity;BME280_pressure;Samples;Min_cycle;Max_cycle;Signal;HPM_P1;HPM_P2
2020/12/15 00:03:07;;;;;;;8.65;6.20;;;7.50;99.90;;;;;;9926678;29;20406;-94
2020/12/15 00:08:08;;;;;;;9.30;5.18;;;7.50;99.90;;;;;;9956603;29;20068;-93
2020/12/15 00:13:15;;;;;;;7.93;5.50;;;7.50;99.90;;;;;;9943893;29;20092;-93
2020/12/15 00:18:17;;;;;;;10.00;5.97;;;7.50;99.90;;;;;;9956549;29;20062;-93
2020/12/15 00:23:18;;;;;;;9.90;7.55;;;7.50;99.90;;;;;;9941408;29;20058;-94
2020/12/15 00:28:20;;;;;;;9.35;6.57;;;7.40;99.90;;;;;;9926559;29;20060;-93
2020/12/15 00:33:21;;;;;;;14.38;6.97;;;7.40;99.90;;;;;;9941245;29;20088;-94
2020/12/15 00:38:23;;;;;;;;;;;7.40;99.90;;;;;;9941279;29;20070;-93
2020/12/15 00:43:29;;;;;;;9.13;6.22;;;7.40;99.90;;;;;;9986970;29;19931;-94
2020/12/15 00:48:34;;;;;;;9.18;7.32;;;7.30;99.90;;;;;;9941538;29;20494;-93
2020/12/15 00:53:36;;;;;;;10.32;7.78;;;7.40;99.90;;;;;;9940357;29;20434;-93
2020/12/15 00:58:37;;;;;;;9.05;6.68;;;7.40;99.90;;;;;;9925022;29;20063;-93
2020/12/15 01:03:39;;;;;;;7.78;6.55;;;7.40;99.90;;;;;;9969208;29;20537;-93
2020/12/15 01:08:41;;;;;;;12.77;7.45;;;7.40;99.90;;;;;;9939422;29;20069;-92
2020/12/15 01:13:50;;;;;;;11.70;8.43;;;7.40;99.90;;;;;;9951644;29;20422;-93
2020/12/15 01:18:51;;;;;;;10.48;6.93;;;7.40;99.90;;;;;;9962196;29;20069;-93
2020/12/15 01:23:53;;;;;;;10.52;7.35;;;7.40;99.90;;;;;;9961944;29;20058;-93
2020/12/15 01:28:54;;;;;;;11.30;7.45;;;7.40;99.90;;;;;;9991118;29;20081;-93
2020/12/15 01:33:56;;;;;;;11.88;8.55;;;7.50;99.90;;;;;;9976571;29;20064;-92
2020/12/15 01:38:58;;;;;;;10.55;7.68;;;7.50;99.90;;;;;;9974942;29;20624;-92
2020/12/15 01:44:04;;;;;;;13.07;8.25;;;7.50;99.90;;;;;;9940767;29;20108;-93
2020/12/15 01:49:08;;;;;;;11.38;7.57;;;7.50;99.90;;;;;;9932673;29;20062;-92
2020/12/15 01:54:09;;;;;;;8.65;6.32;;;7.60;99.90;;;;;;9930474;29;20063;-93
2020/12/15 01:59:14;;;;;;;10.80;7.05;;;7.50;99.90;;;;;;9915701;29;20066;-92
2020/12/15 02:04:16;;;;;;;9.55;6.88;;;7.60;99.90;;;;;;9931982;29;20059;-93
2020/12/15 02:09:18;;;;;;;14.68;7.47;;;7.60;99.90;;;;;;9916043;29;20067;-93
2020/12/15 02:14:20;;;;;;;13.75;8.23;;;7.60;99.90;;;;;;9915956;29;20059;-93
2020/12/15 02:19:22;;;;;;;9.15;7.30;;;7.60;99.90;;;;;;9945698;29;20067;-92
2020/12/15 02:24:24;;;;;;;8.82;6.50;;;7.60;99.90;;;;;;9916931;29;20069;-93
2020/12/15 02:29:25;;;;;;;8.27;6.80;;;7.70;99.90;;;;;;9915166;29;20063;-93
2020/12/15 02:34:27;;;;;;;9.30;7.30;;;7.70;99.90;;;;;;9915895;29;20069;-93
2020/12/15 02:39:29;;;;;;;;;;;7.80;99.90;;;;;;9921740;29;20461;-93
2020/12/15 02:44:33;;;;;;;6.82;6.13;;;7.80;99.90;;;;;;9922790;29;19925;-92
2020/12/15 02:49:34;;;;;;;7.35;5.63;;;7.80;99.90;;;;;;9921857;29;20063;-93
2020/12/15 02:54:36;;;;;;;8.48;6.45;;;7.80;99.90;;;;;;9921955;29;20059;-93
2020/12/15 03:12:29;;;;;;;7.88;5.78;;;7.80;99.90;;;;;;10062580;29;20053;-93
2020/12/15 03:17:31;;;;;;;9.45;6.97;;;7.80;99.90;;;;;;10021691;29;20057;-93
2020/12/15 03:22:32;;;;;;;;;;;7.80;99.90;;;;;;10026652;29;20065;-93
2020/12/15 03:27:34;;;;;;;14.23;6.18;;;7.80;99.90;;;;;;10035901;29;20022;-93
2020/12/15 03:32:35;;;;;;;6.93;6.32;;;7.80;99.90;;;;;;10020980;29;20064;-93
2020/12/15 03:37:37;;;;;;;8.15;7.28;;;7.80;99.90;;;;;;10004284;29;20068;-93
2020/12/15 03:42:38;;;;;;;10.43;7.47;;;7.80;99.90;;;;;;9990514;29;20071;-93
2020/12/15 03:47:42;;;;;;;8.73;7.82;;;7.80;99.90;;;;;;10046797;29;20058;-93
2020/12/15 03:52:43;;;;;;;6.85;6.15;;;7.80;99.90;;;;;;10047931;29;20106;-93
2020/12/15 03:57:45;;;;;;;13.75;7.20;;;7.80;99.90;;;;;;10017389;29;20565;-93
2020/12/15 04:02:47;;;;;;;8.93;7.05;;;7.80;99.90;;;;;;10047437;29;20073;-92
2020/12/15 04:07:49;;;;;;;8.57;6.32;;;7.80;99.90;;;;;;10047344;29;20136;-93
2020/12/15 04:12:50;;;;;;;;;;;7.80;99.90;;;;;;10031575;29;20057;-92
2020/12/15 04:17:52;;;;;;;11.40;6.93;;;7.90;99.90;;;;;;10062438;29;19930;-93
2020/12/15 04:22:53;;;;;;;7.78;6.18;;;7.80;99.90;;;;;;10031461;29;20072;-93
2020/12/15 04:27:55;;;;;;;11.15;8.30;;;7.90;99.90;;;;;;10030824;29;20437;-93
2020/12/15 04:32:56;;;;;;;;;;;7.90;99.90;;;;;;10031599;29;20490;-93
2020/12/15 04:37:58;;;;;;;9.25;6.43;;;7.80;99.90;;;;;;10046421;29;19930;-92
2020/12/15 04:43:02;;;;;;;10.07;6.35;;;7.90;99.90;;;;;;10045737;29;20424;-92
2020/12/15 04:48:07;;;;;;;7.68;6.50;;;7.90;99.90;;;;;;10045812;29;20061;-93
2020/12/15 04:53:11;;;;;;;9.95;7.65;;;7.80;99.90;;;;;;10045990;29;20054;-92
2020/12/15 04:58:20;;;;;;;10.15;6.85;;;7.80;99.90;;;;;;10031051;29;20481;-92
2020/12/15 05:03:22;;;;;;;7.65;6.78;;;7.80;99.90;;;;;;10045697;29;20136;-93
2020/12/15 05:08:23;;;;;;;7.57;6.82;;;7.80;99.90;;;;;;10045530;29;20057;-92
2020/12/15 05:13:25;;;;;;;9.38;6.88;;;7.70;99.90;;;;;;10014967;29;20068;-92
2020/12/15 05:18:26;;;;;;;9.88;6.72;;;7.80;99.90;;;;;;10048316;29;20069;-92
2020/12/15 05:23:30;;;;;;;11.40;8.00;;;7.80;99.90;;;;;;9999202;29;20082;-93
2020/12/15 05:28:31;;;;;;;9.85;6.78;;;7.70;99.90;;;;;;9992307;29;20060;-93
2020/12/15 05:33:33;;;;;;;10.27;6.25;;;7.70;99.90;;;;;;9992124;29;20093;-92
2020/12/15 05:38:34;;;;;;;8.88;6.20;;;7.80;99.90;;;;;;10006631;29;20113;-93
2020/12/15 05:43:39;;;;;;;7.38;6.28;;;7.70;99.90;;;;;;9991888;29;20049;-93
2020/12/15 05:48:40;;;;;;;13.00;7.28;;;7.70;99.90;;;;;;10011045;29;20050;-92
2020/12/15 05:53:42;;;;;;;9.02;7.03;;;7.70;99.90;;;;;;10014247;29;20065;-92
2020/12/15 05:58:53;;;;;;;8.50;7.25;;;7.70;99.90;;;;;;10044350;29;20066;-93
2020/12/15 06:03:57;;;;;;;11.80;7.30;;;7.70;99.90;;;;;;10014142;29;20141;-92
2020/12/15 06:08:59;;;;;;;9.82;7.82;;;7.70;99.90;;;;;;10044283;29;20136;-93
2020/12/15 06:14:00;;;;;;;11.02;6.97;;;7.70;99.90;;;;;;10033022;29;20061;-91
2020/12/15 06:19:07;;;;;;;12.73;7.22;;;7.70;99.90;;;;;;10020650;29;20140;-93
2020/12/15 06:24:09;;;;;;;13.98;8.02;;;7.70;99.90;;;;;;10035275;29;20067;-93
2020/12/15 06:29:10;;;;;;;11.57;8.10;;;7.80;99.90;;;;;;10050890;29;20497;-93
2020/12/15 06:34:12;;;;;;;13.50;8.70;;;7.80;99.90;;;;;;10020651;29;20064;-93
2020/12/15 06:39:14;;;;;;;10.50;7.97;;;7.80;99.90;;;;;;10066142;29;20069;-93
2020/12/15 06:44:16;;;;;;;9.90;7.78;;;7.80;99.90;;;;;;10050386;29;20136;-94
2020/12/15 06:49:33;;;;;;;12.20;8.48;;;7.80;99.90;;;;;;10050436;29;20053;-93
2020/12/15 06:54:39;;;;;;;9.73;8.38;;;7.80;99.90;;;;;;10049221;29;20453;-93
2020/12/15 06:59:41;;;;;;;12.05;8.65;;;7.80;99.90;;;;;;10050043;29;20095;-92
2020/12/15 07:04:47;;;;;;;14.88;11.50;;;7.80;99.90;;;;;;10049578;29;20067;-93
2020/12/15 07:09:48;;;;;;;9.85;7.88;;;7.90;99.90;;;;;;10049591;29;20081;-93
2020/12/15 07:14:51;;;;;;;11.40;8.77;;;7.90;99.90;;;;;;10040406;29;20061;-92
2020/12/15 07:19:52;;;;;;;11.48;8.80;;;7.90;99.90;;;;;;10057119;29;20141;-92
2020/12/15 07:24:53;;;;;;;12.32;9.75;;;7.90;99.90;;;;;;10054503;29;20418;-92
2020/12/15 07:29:55;;;;;;;17.92;12.52;;;7.90;99.90;;;;;;10018957;29;20057;-92
2020/12/15 07:35:09;;;;;;;12.05;9.52;;;7.90;99.90;;;;;;10047965;29;20057;-92
2020/12/15 07:40:13;;;;;;;12.35;10.05;;;7.90;99.90;;;;;;10048178;29;20061;-92
2020/12/15 07:45:16;;;;;;;17.52;12.25;;;8.00;99.90;;;;;;10032594;29;20458;-92
2020/12/15 07:50:27;;;;;;;14.70;11.95;;;8.00;99.90;;;;;;10047421;29;20082;-92
2020/12/15 07:55:28;;;;;;;18.33;13.05;;;8.00;99.90;;;;;;10033762;29;20083;-92
2020/12/15 08:00:31;;;;;;;19.25;11.82;;;8.00;99.90;;;;;;10047678;29;20061;-94
2020/12/15 08:05:32;;;;;;;16.27;12.82;;;8.00;99.90;;;;;;10047860;29;20137;-93
2020/12/15 08:10:35;;;;;;;12.65;11.10;;;8.10;99.90;;;;;;10032376;29;20077;-93
2020/12/15 08:15:42;;;;;;;23.73;14.15;;;8.20;99.90;;;;;;10047275;29;20088;-92
2020/12/15 08:20:46;;;;;;;16.08;12.85;;;8.20;99.90;;;;;;10024414;29;20061;-94
2020/12/15 08:25:47;;;;;;;14.32;12.90;;;8.20;99.90;;;;;;10008842;29;20057;-93
2020/12/15 08:30:55;;;;;;;16.35;14.57;;;8.30;99.90;;;;;;9978686;29;20062;-93
2020/12/15 08:35:58;;;;;;;18.48;15.48;;;8.30;99.90;;;;;;10007770;29;20069;-93
2020/12/15 08:41:03;;;;;;;16.90;14.43;;;8.30;99.90;;;;;;9978179;29;20062;-93
2020/12/15 08:46:15;;;;;;;31.20;23.00;;;8.40;99.90;;;;;;10008089;29;20056;-92
2020/12/15 08:51:17;;;;;;;20.42;17.17;;;8.40;99.90;;;;;;10008436;29;20054;-91
2020/12/15 08:56:18;;;;;;;17.33;14.88;;;8.50;99.90;;;;;;9962163;29;20097;-90
2020/12/15 09:01:29;;;;;;;18.33;14.25;;;8.60;99.90;;;;;;9991856;29;20061;-91
2020/12/15 09:06:37;;;;;;;25.98;19.77;;;8.70;99.90;;;;;;10006786;29;20110;-91
2020/12/15 09:11:38;;;;;;;16.25;14.38;;;8.70;99.90;;;;;;9976832;29;20092;-91
2020/12/15 09:16:42;;;;;;;20.67;17.60;;;8.70;99.90;;;;;;9993500;24;20065;-91
2020/12/15 09:22:01;;;;;;;23.70;19.10;;;8.80;99.90;;;;;;9991076;29;20066;-91
2020/12/15 09:27:03;;;;;;;14.35;12.85;;;8.70;99.90;;;;;;10003859;29;20054;-92
2020/12/15 09:32:06;;;;;;;18.08;15.50;;;8.80;99.90;;;;;;9991031;29;20058;-91
2020/12/15 09:37:07;;;;;;;18.25;14.55;;;8.80;99.90;;;;;;9991405;29;20058;-91
2020/12/15 09:42:09;;;;;;;22.80;17.05;;;8.80;99.90;;;;;;10013055;29;20064;-91
2020/12/15 09:47:10;;;;;;;17.77;15.48;;;8.80;99.90;;;;;;9972965;29;20062;-91
2020/12/15 09:52:12;;;;;;;26.65;20.55;;;8.80;99.90;;;;;;9977856;29;20096;-90
2020/12/15 09:57:13;;;;;;;16.02;14.43;;;8.80;99.90;;;;;;9975218;29;20153;-91
2020/12/15 10:02:15;;;;;;;20.30;17.00;;;8.90;99.90;;;;;;9974754;29;20169;-91
2020/12/15 10:07:18;;;;;;;;;;;8.90;99.90;;;;;;9959723;29;20518;-91
2020/12/15 10:12:19;;;;;;;21.25;18.98;;;8.90;99.90;;;;;;9974459;29;19924;-91
2020/12/15 10:17:20;;;;;;;17.17;15.35;;;9.00;99.90;;;;;;9959702;29;20065;-91
2020/12/15 10:22:22;;;;;;;16.08;14.55;;;9.00;99.90;;;;;;9958502;29;20055;-91
2020/12/15 10:27:24;;;;;;;17.20;15.35;;;9.10;99.90;;;;;;9958436;29;20523;-91
2020/12/15 10:32:25;;;;;;;;;;;9.20;99.90;;;;;;9959173;29;20113;-90
2020/12/15 10:37:28;;;;;;;18.37;15.67;;;9.20;99.90;;;;;;9988294;29;20377;-91
2020/12/15 10:42:29;;;;;;;18.95;16.55;;;9.20;99.90;;;;;;9973907;29;20315;-91
2020/12/15 10:47:31;;;;;;;25.95;22.98;;;9.20;99.90;;;;;;9987851;29;20065;-91
2020/12/15 10:52:33;;;;;;;28.05;23.23;;;9.20;99.90;;;;;;9973380;29;20067;-90
2020/12/15 10:57:36;;;;;;;30.85;24.77;;;9.20;99.90;;;;;;9972570;29;20054;-91
2020/12/15 11:02:37;;;;;;;30.98;25.80;;;9.30;99.90;;;;;;9972571;29;20076;-91
2020/12/15 11:07:39;;;;;;;;;;;9.30;99.90;;;;;;9972623;29;20503;-91
2020/12/15 11:12:40;;;;;;;27.90;23.17;;;9.30;99.90;;;;;;9988481;29;20003;-90
2020/12/15 11:17:42;;;;;;;38.67;27.85;;;9.30;99.90;;;;;;10005218;29;20061;-90
2020/12/15 11:22:43;;;;;;;27.50;21.85;;;9.30;99.90;;;;;;9999440;29;20093;-92
2020/12/15 11:27:45;;;;;;;27.80;21.00;;;9.30;99.90;;;;;;10001049;29;20366;-92
2020/12/15 11:32:47;;;;;;;21.35;19.08;;;9.30;99.90;;;;;;10011646;29;20588;-92
2020/12/15 11:37:52;;;;;;;21.70;18.13;;;9.30;99.90;;;;;;10010863;29;20069;-91
2020/12/15 11:42:57;;;;;;;21.85;16.98;;;9.40;99.90;;;;;;10010373;29;20520;-91
2020/12/15 11:48:00;;;;;;;29.02;18.45;;;9.40;99.90;;;;;;10010207;29;20062;-91
2020/12/15 11:53:02;;;;;;;17.98;15.90;;;9.30;99.90;;;;;;9994644;29;20110;-91
2020/12/15 11:58:04;;;;;;;22.40;19.38;;;9.40;99.90;;;;;;10024339;29;20076;-91
2020/12/15 12:03:05;;;;;;;21.20;17.30;;;9.40;99.90;;;;;;9994603;29;20066;-91
2020/12/15 12:08:07;;;;;;;23.40;19.35;;;9.40;99.90;;;;;;10008192;29;20137;-90
2020/12/15 12:13:09;;;;;;;24.73;20.27;;;9.30;99.90;;;;;;9999951;29;20064;-91
2020/12/15 12:18:10;;;;;;;19.98;17.90;;;9.30;99.90;;;;;;10008474;29;20486;-91
2020/12/15 12:23:12;;;;;;;32.65;23.58;;;9.30;99.90;;;;;;10008764;29;20066;-91
2020/12/15 12:28:13;;;;;;;28.65;22.52;;;9.40;99.90;;;;;;9992614;29;20054;-91
2020/12/15 12:33:15;;;;;;;26.77;22.45;;;9.40;99.90;;;;;;9994827;29;20068;-91
2020/12/15 12:38:16;;;;;;;27.98;22.52;;;9.40;99.90;;;;;;9969057;29;20431;-91
2020/12/15 12:43:18;;;;;;;21.67;18.42;;;9.30;99.90;;;;;;9969944;29;20069;-91
2020/12/15 12:48:20;;;;;;;;;;;9.30;99.90;;;;;;9954393;29;20065;-91
2020/12/15 12:53:22;;;;;;;24.17;19.67;;;9.40;99.90;;;;;;10000044;29;19924;-91
2020/12/15 12:58:23;;;;;;;26.60;21.55;;;9.40;99.90;;;;;;9982630;29;20064;-92
2020/12/15 13:03:24;;;;;;;18.25;16.35;;;9.40;99.90;;;;;;9954746;29;20145;-92
2020/12/15 13:08:26;;;;;;;26.15;21.92;;;9.50;99.90;;;;;;9954371;29;20069;-92
2020/12/15 13:13:28;;;;;;;;;;;9.40;99.90;;;;;;9969200;29;20067;-91
2020/12/15 13:18:29;;;;;;;26.90;21.50;;;9.50;99.90;;;;;;9984269;29;19947;-91
2020/12/15 13:23:31;;;;;;;28.02;22.80;;;9.50;99.90;;;;;;9971031;29;20129;-91
2020/12/15 13:28:32;;;;;;;32.53;24.80;;;9.50;99.90;;;;;;9991697;29;20153;-91
2020/12/15 13:33:35;;;;;;;27.42;21.73;;;9.60;99.90;;;;;;10006383;29;20054;-92
2020/12/15 13:38:40;;;;;;;29.13;22.20;;;9.70;99.90;;;;;;9990365;29;20565;-91
2020/12/15 13:43:44;;;;;;;26.23;22.58;;;9.60;99.90;;;;;;10006597;29;20054;-92
2020/12/15 13:48:46;;;;;;;26.75;21.60;;;9.60;99.90;;;;;;9990682;29;20406;-92
2020/12/15 13:53:47;;;;;;;27.52;22.42;;;9.60;99.90;;;;;;10004863;29;20058;-92
2020/12/15 13:58:51;;;;;;;20.73;18.67;;;9.60;99.90;;;;;;9990810;29;20057;-92
2020/12/15 14:03:52;;;;;;;24.55;19.10;;;9.50;99.90;;;;;;9954278;29;20061;-92
2020/12/15 14:08:54;;;;;;;28.83;23.25;;;9.50;99.90;;;;;;9968354;29;20097;-92
2020/12/15 14:14:04;;;;;;;26.50;21.38;;;9.50;99.90;;;;;;9968825;29;20100;-92
2020/12/15 14:19:05;;;;;;;38.05;27.45;;;9.60;99.90;;;;;;9952544;29;20507;-92
2020/12/15 14:24:07;;;;;;;32.92;24.75;;;9.50;99.90;;;;;;9989333;29;20058;-92
2020/12/15 14:29:08;;;;;;;33.90;25.42;;;9.50;99.90;;;;;;9955364;29;20054;-92
2020/12/15 14:34:11;;;;;;;25.33;20.95;;;9.50;99.90;;;;;;9956384;29;20517;-92
2020/12/15 14:39:12;;;;;;;28.85;23.55;;;9.50;99.90;;;;;;9973849;29;20062;-92
2020/12/15 14:44:14;;;;;;;;;;;9.60;99.90;;;;;;9987746;29;20476;-91
2020/12/15 14:49:16;;;;;;;27.95;21.13;;;9.60;99.90;;;;;;9958348;29;19965;-91
2020/12/15 14:54:21;;;;;;;28.38;22.58;;;9.50;99.90;;;;;;9958647;29;20074;-91
2020/12/15 14:59:23;;;;;;;25.27;20.98;;;9.50;99.90;;;;;;9973446;29;20058;-93
2020/12/15 15:04:24;;;;;;;24.15;20.40;;;9.60;99.90;;;;;;9957734;29;20423;-93
2020/12/15 15:09:26;;;;;;;29.73;22.80;;;9.60;99.90;;;;;;9973371;29;20501;-92
2020/12/15 15:14:28;;;;;;;36.60;26.98;;;9.50;99.90;;;;;;9957554;29;20072;-92
2020/12/15 15:19:30;;;;;;;36.63;25.48;;;9.50;99.90;;;;;;9972519;29;20569;-92
2020/12/15 15:24:31;;;;;;;26.15;22.05;;;9.40;99.90;;;;;;9950154;29;20125;-92
2020/12/15 15:29:35;;;;;;;37.15;26.77;;;9.30;99.90;;;;;;10016149;23;20149;-92
2020/12/15 15:34:36;;;;;;;32.85;25.33;;;9.40;99.90;;;;;;10032618;29;20068;-92
2020/12/15 15:39:39;;;;;;;58.58;32.33;;;9.30;99.90;;;;;;10017184;29;20497;-93
2020/12/15 15:44:40;;;;;;;24.65;19.70;;;9.20;99.90;;;;;;10001931;29;20057;-93
2020/12/15 15:49:52;;;;;;;46.13;30.85;;;9.10;99.90;;;;;;10022485;29;20102;-92
2020/12/15 15:54:54;;;;;;;35.08;25.85;;;9.00;99.90;;;;;;10017792;29;20069;-92
2020/12/15 15:59:55;;;;;;;34.40;24.98;;;9.00;99.90;;;;;;10017966;29;20148;-92
2020/12/15 16:04:57;;;;;;;47.63;31.88;;;9.10;99.90;;;;;;9984454;29;20061;-92
2020/12/15 16:10:05;;;;;;;31.98;26.33;;;9.00;99.90;;;;;;9981494;29;20080;-92
2020/12/15 16:15:07;;;;;;;53.05;35.88;;;9.00;99.90;;;;;;9994108;29;20089;-92
2020/12/15 16:20:08;;;;;;;41.67;29.67;;;9.10;99.90;;;;;;9978291;29;20066;-91
2020/12/15 16:25:11;;;;;;;;;;;9.20;99.90;;;;;;9993986;29;20144;-92
2020/12/15 16:30:12;;;;;;;41.70;29.65;;;9.20;99.90;;;;;;9978635;29;19957;-92
2020/12/15 16:35:15;;;;;;;35.88;28.25;;;9.20;99.90;;;;;;9963837;29;20057;-92
2020/12/15 16:40:17;;;;;;;42.63;28.92;;;9.30;99.90;;;;;;10007769;29;20140;-93
2020/12/15 16:45:18;;;;;;;30.40;22.98;;;9.20;99.90;;;;;;9993192;29;20050;-92
2020/12/15 16:50:20;;;;;;;33.47;27.10;;;9.10;99.90;;;;;;10021407;29;20478;-93
2020/12/15 16:55:21;;;;;;;37.40;26.33;;;9.00;99.90;;;;;;10046614;29;20068;-92
2020/12/15 17:00:23;;;;;;;30.75;24.65;;;8.90;99.90;;;;;;10030046;29;20160;-92
2020/12/15 17:05:24;;;;;;;34.38;23.52;;;8.70;99.90;;;;;;10045567;29;20068;-93
2020/12/15 17:10:26;;;;;;;28.35;21.67;;;8.50;99.90;;;;;;10019803;29;20495;-92
2020/12/15 17:15:42;;;;;;;56.83;30.50;;;8.20;99.90;;;;;;9995771;29;20114;-92
2020/12/15 17:20:43;;;;;;;25.60;19.67;;;7.90;99.90;;;;;;9976891;29;20069;-92
2020/12/15 17:25:47;;;;;;;23.77;17.85;;;7.70;99.90;;;;;;9975239;29;20122;-92
2020/12/15 17:30:48;;;;;;;22.40;19.08;;;7.40;99.90;;;;;;10041199;29;20386;-92
2020/12/15 17:35:50;;;;;;;25.15;18.85;;;7.30;99.90;;;;;;10029072;29;20081;-92
2020/12/15 17:40:51;;;;;;;27.20;21.38;;;7.10;99.90;;;;;;10043870;29;20062;-92
2020/12/15 17:45:53;;;;;;;26.65;20.05;;;7.00;99.90;;;;;;10029208;29;20136;-92
2020/12/15 17:50:54;;;;;;;31.30;21.27;;;6.90;99.90;;;;;;10043080;29;20498;-92
2020/12/15 17:55:56;;;;;;;27.17;20.52;;;6.80;99.90;;;;;;10044077;29;20063;-92
2020/12/15 18:00:58;;;;;;;29.05;21.63;;;6.80;99.90;;;;;;10006118;29;20087;-91
2020/12/15 18:05:59;;;;;;;27.85;21.23;;;6.70;99.90;;;;;;9974647;29;20054;-92
2020/12/15 18:11:00;;;;;;;29.25;20.67;;;6.60;99.90;;;;;;9981584;29;20154;-91
2020/12/15 18:16:02;;;;;;;34.03;23.45;;;6.50;99.90;;;;;;9997927;29;20062;-91
2020/12/15 18:21:04;;;;;;;25.98;19.92;;;6.50;99.90;;;;;;10034847;29;20058;-91
2020/12/15 18:26:08;;;;;;;43.83;27.30;;;6.70;99.90;;;;;;10034951;29;20097;-91
2020/12/15 18:31:17;;;;;;;44.80;27.70;;;6.60;99.90;;;;;;10048432;29;20164;-91
2020/12/15 18:36:24;;;;;;;53.97;31.95;;;6.60;99.90;;;;;;10029113;29;20054;-91
2020/12/15 18:41:25;;;;;;;44.40;26.35;;;6.70;99.90;;;;;;9981598;29;20104;-92
2020/12/15 18:46:27;;;;;;;40.50;26.25;;;7.10;99.90;;;;;;9981625;29;20093;-92
2020/12/15 18:51:28;;;;;;;69.88;34.70;;;6.90;99.90;;;;;;9996496;29;20054;-92
2020/12/15 18:56:30;;;;;;;38.00;26.00;;;6.80;99.90;;;;;;9981485;29;20093;-91
2020/12/15 19:01:36;;;;;;;58.67;32.20;;;7.10;99.90;;;;;;9997448;29;20057;-91
2020/12/15 19:06:42;;;;;;;44.05;29.50;;;6.80;99.90;;;;;;10003975;29;20085;-90
2020/12/15 19:11:44;;;;;;;38.03;25.27;;;6.90;99.90;;;;;;10048862;29;20062;-91
2020/12/15 19:16:45;;;;;;;36.38;24.02;;;6.60;99.90;;;;;;10033419;29;20061;-91
2020/12/15 19:21:47;;;;;;;44.70;23.70;;;6.30;99.90;;;;;;10048074;29;20086;-91
2020/12/15 19:26:54;;;;;;;35.10;22.45;;;6.30;99.90;;;;;;10048945;29;20085;-91
2020/12/15 19:31:55;;;;;;;27.25;19.40;;;6.00;99.90;;;;;;10047277;29;20141;-91
2020/12/15 19:36:57;;;;;;;39.35;22.70;;;6.10;99.90;;;;;;10023757;29;20066;-91
2020/12/15 19:41:58;;;;;;;26.17;19.83;;;6.00;99.90;;;;;;9979310;29;20062;-91
2020/12/15 19:47:00;;;;;;;72.88;33.97;;;5.90;99.90;;;;;;9979477;29;20106;-91
2020/12/15 19:52:01;;;;;;;30.25;21.15;;;5.90;99.90;;;;;;10008945;29;20132;-91
2020/12/15 19:57:04;;;;;;;40.40;25.42;;;5.80;99.90;;;;;;9992874;29;20058;-91
2020/12/15 20:02:07;;;;;;;34.17;23.23;;;5.90;99.90;;;;;;9978640;29;20119;-93
2020/12/15 20:07:09;;;;;;;58.70;31.45;;;6.10;99.90;;;;;;10021713;29;20057;-93
2020/12/15 20:12:10;;;;;;;53.08;28.80;;;6.10;99.90;;;;;;10047496;29;20088;-93
2020/12/15 20:17:17;;;;;;;61.13;27.90;;;6.00;99.90;;;;;;10032471;29;20137;-93
2020/12/15 20:22:25;;;;;;;60.70;28.42;;;6.00;99.90;;;;;;10031885;29;20061;-92
2020/12/15 20:27:31;;;;;;;64.88;27.25;;;5.90;99.90;;;;;;10033039;29;20053;-93
2020/12/15 20:32:38;;;;;;;44.75;25.67;;;6.00;99.90;;;;;;10045726;29;20057;-93
2020/12/15 20:37:39;;;;;;;;;;;6.00;99.90;;;;;;10016117;29;20502;-93
2020/12/15 20:42:41;;;;;;;72.05;30.02;;;5.80;99.90;;;;;;10030823;29;19924;-93
2020/12/15 20:47:47;;;;;;;53.65;28.27;;;5.80;99.90;;;;;;10039627;29;20085;-93
2020/12/15 20:52:49;;;;;;;64.40;33.17;;;6.00;99.90;;;;;;9992421;29;20106;-93
2020/12/15 20:57:54;;;;;;;35.50;22.88;;;5.90;99.90;;;;;;10007360;29;20118;-93
2020/12/15 21:02:55;;;;;;;36.97;22.52;;;5.60;99.90;;;;;;9993256;29;20406;-93
2020/12/15 21:07:57;;;;;;;51.03;28.23;;;5.50;99.90;;;;;;10007305;29;20114;-93
2020/12/15 21:13:03;;;;;;;45.30;25.90;;;5.50;99.90;;;;;;9965273;29;20133;-93
2020/12/15 21:18:05;;;;;;;38.70;24.33;;;5.50;99.90;;;;;;9977104;29;20070;-93
2020/12/15 21:23:06;;;;;;;70.88;32.85;;;5.60;99.90;;;;;;9992096;29;20093;-93
2020/12/15 21:28:08;;;;;;;93.97;39.55;;;5.50;99.90;;;;;;10000897;29;20065;-93
2020/12/15 21:33:10;;;;;;;36.00;23.20;;;5.60;99.90;;;;;;10022652;29;20053;-93
2020/12/15 21:38:12;;;;;;;113.07;38.17;;;5.60;99.90;;;;;;10042928;29;20061;-93
2020/12/15 21:43:15;;;;;;;60.10;28.90;;;5.50;99.90;;;;;;10037124;23;20055;-93
2020/12/15 21:48:32;;;;;;;78.28;31.95;;;5.30;99.90;;;;;;9941339;29;20082;-93
2020/12/15 21:53:34;;;;;;;65.63;33.50;;;5.40;99.90;;;;;;9924663;29;20051;-93
2020/12/15 21:58:35;;;;;;;39.78;24.25;;;5.40;99.90;;;;;;9909525;29;20093;-93
2020/12/15 22:03:37;;;;;;;47.83;29.38;;;5.30;99.90;;;;;;9940257;29;20094;-93
2020/12/15 22:08:39;;;;;;;94.10;38.15;;;5.30;99.90;;;;;;9960883;29;20159;-93
2020/12/15 22:13:40;;;;;;;43.03;23.30;;;5.40;99.90;;;;;;9975721;29;20062;-93
2020/12/15 22:18:42;;;;;;;37.50;24.38;;;5.10;99.90;;;;;;9945804;29;20069;-94
2020/12/15 22:23:53;;;;;;;46.93;27.27;;;5.20;99.90;;;;;;9963488;29;20062;-93
2020/12/15 22:28:55;;;;;;;56.38;28.48;;;5.10;99.90;;;;;;9975110;29;20058;-93
2020/12/15 22:33:56;;;;;;;37.78;25.80;;;5.00;99.90;;;;;;9975539;29;20086;-93
2020/12/15 22:38:57;;;;;;;84.15;36.83;;;4.80;99.90;;;;;;9959670;29;20059;-93
2020/12/15 22:43:59;;;;;;;36.65;22.85;;;5.10;99.90;;;;;;9972326;29;20069;-93
2020/12/15 22:49:01;;;;;;;71.20;35.70;;;4.80;99.90;;;;;;9961777;29;20426;-93
2020/12/15 22:54:11;;;;;;;46.55;26.40;;;4.90;99.90;;;;;;9960725;29;20086;-93
2020/12/15 22:59:13;;;;;;;;;;;4.80;99.90;;;;;;9959753;29;20066;-93
2020/12/15 23:04:14;;;;;;;66.60;33.28;;;4.90;99.90;;;;;;9967457;29;19925;-93
2020/12/15 23:09:16;;;;;;;76.40;34.10;;;5.00;99.90;;;;;;9944321;29;20506;-93
2020/12/15 23:14:18;;;;;;;59.03;33.30;;;4.90;99.90;;;;;;9979955;29;20525;-93
2020/12/15 23:19:20;;;;;;;53.88;30.92;;;4.90;99.90;;;;;;9996367;29;20069;-94
2020/12/15 23:24:30;;;;;;;49.47;27.08;;;4.80;99.90;;;;;;9984851;29;20065;-93
2020/12/15 23:29:32;;;;;;;57.75;31.05;;;4.70;99.90;;;;;;9980888;29;20068;-93
2020/12/15 23:34:33;;;;;;;62.33;35.10;;;4.70;99.90;;;;;;9980894;29;20069;-93
2020/12/15 23:39:36;;;;;;;66.97;36.15;;;4.70;99.90;;;;;;9966220;29;20058;-93
2020/12/15 23:44:37;;;;;;;39.78;26.13;;;4.60;99.90;;;;;;9965828;29;20062;-93
2020/12/15 23:49:39;;;;;;;49.58;29.70;;;4.60;99.90;;;;;;9995468;29;20070;-93
2020/12/15 23:54:50;;;;;;;43.67;25.83;;;4.60;99.90;;;;;;9969774;29;20066;-93
2020/12/15 23:59:51;;;;;;;89.65;39.72;;;4.60;99.90;;;;;;9980253;29;20068;-93
